Time;durP1;ratioP1;P1;durP2;ratioP2;P2;SDS_P1;SDS_P2;PMS_P1;PMS_P2;Temp;Humidity;BMP_temperature;BMP_pressure;BME280_temperature;BME280_humidity;BME280_pressure;Samples;Min_cycle;Max_cycle;Signal;HPM_P1;HPM_P2
2023/05/07 00:00:08;;;;;;;12.32;3.88;;;;;;;20.99;65.33;98227.91;4745892;30;20052;-63
2023/05/07 00:02:38;;;;;;;8.95;3.85;;;;;;;20.75;64.07;98218.78;4749575;30;20564;-63
2023/05/07 00:05:08;;;;;;;6.70;4.28;;;;;;;20.94;64.50;98233.28;4753161;29;20060;-62
2023/05/07 00:07:38;;;;;;;5.93;3.58;;;;;;;21.02;64.66;98230.03;4749281;30;20072;-62
2023/05/07 00:10:08;;;;;;;7.30;3.30;;;;;;;21.00;63.90;98240.28;4754266;30;20456;-63
2023/05/07 00:12:37;;;;;;;4.35;1.92;;;;;;;20.92;64.32;98234.66;4763422;30;20074;-64
2023/05/07 00:15:07;;;;;;;2.75;1.83;;;;;;;21.00;63.87;98239.47;4748436;30;20065;-63
2023/05/07 00:17:37;;;;;;;3.60;1.80;;;;;;;21.10;64.04;98225.19;4762431;30;20075;-64
2023/05/07 00:20:07;;;;;;;3.17;1.95;;;;;;;21.09;63.53;98216.31;4753382;30;20059;-62
2023/05/07 00:22:37;;;;;;;3.58;1.98;;;;;;;21.08;63.47;98212.00;4744387;30;20448;-62
2023/05/07 00:25:07;;;;;;;2.88;1.40;;;;;;;21.04;62.25;98203.66;4744983;30;20056;-62
2023/05/07 00:27:36;;;;;;;3.17;1.48;;;;;;;21.13;62.00;98213.91;4745603;30;20072;-61
2023/05/07 00:30:07;;;;;;;3.67;1.38;;;;;;;21.10;61.74;98204.47;4747321;30;20059;-61
2023/05/07 00:32:37;;;;;;;4.45;1.38;;;;;;;21.11;60.57;98224.91;4746101;30;20071;-61
2023/05/07 00:35:07;;;;;;;2.78;1.05;;;;;;;21.14;59.75;98200.19;4748306;30;20930;-61
2023/05/07 00:37:37;;;;;;;6.93;1.30;;;;;;;21.15;60.34;98191.03;4746359;30;20517;-60
2023/05/07 00:40:08;;;;;;;5.70;1.50;;;;;;;21.23;60.47;98181.56;4748381;30;20483;-62
2023/05/07 00:42:37;;;;;;;2.03;0.90;;;;;;;21.29;60.27;98177.75;4754429;30;20056;-62
2023/05/07 00:45:07;;;;;;;2.67;1.08;;;;;;;21.31;59.58;98205.25;4761870;29;20063;-60
2023/05/07 00:47:37;;;;;;;3.58;1.00;;;;;;;21.37;59.34;98226.53;4763155;29;20058;-61
2023/05/07 00:50:07;;;;;;;1.70;1.20;;;;;;;21.43;59.05;98221.91;4757081;29;20146;-61
2023/05/07 00:52:37;;;;;;;4.00;1.15;;;;;;;21.48;58.73;98219.19;4753614;30;20060;-62
2023/05/07 00:55:07;;;;;;;2.60;1.35;;;;;;;21.55;57.60;98213.53;4744720;30;20159;-62
2023/05/07 00:57:39;;;;;;;2.38;1.08;;;;;;;21.57;57.60;98214.06;4743704;30;20118;-61
2023/05/07 01:00:09;;;;;;;1.70;1.08;;;;;;;21.60;57.26;98200.03;4737866;29;20060;-61
2023/05/07 01:02:40;;;;;;;2.63;0.90;;;;;;;21.62;56.94;98206.75;4756585;29;20121;-61
2023/05/07 01:05:15;;;;;;;2.97;1.05;;;;;;;21.63;56.82;98205.69;4760172;29;20385;-61
2023/05/07 01:07:45;;;;;;;2.45;1.13;;;;;;;21.72;56.10;98203.22;4762401;29;20155;-62
2023/05/07 01:10:16;;;;;;;2.72;1.13;;;;;;;21.76;56.47;98190.81;4728723;30;20155;-61
2023/05/07 01:12:48;;;;;;;7.15;1.00;;;;;;;21.82;55.72;98198.56;4743823;30;20537;-61
2023/05/07 01:15:18;;;;;;;1.35;0.70;;;;;;;21.90;54.38;98205.28;4728143;30;20136;-61
2023/05/07 01:17:48;;;;;;;3.83;1.05;;;;;;;21.93;55.11;98210.97;4750740;30;20058;-63
2023/05/07 01:20:28;;;;;;;1.13;0.88;;;;;;;21.96;54.65;98193.41;4753888;29;20052;-62
2023/05/07 01:22:57;;;;;;;2.05;0.90;;;;;;;22.00;53.36;98201.75;4756215;30;20064;-62
2023/05/07 01:25:27;;;;;;;4.00;0.80;;;;;;;22.08;54.96;98217.38;4761815;30;20884;-62
2023/05/07 01:28:02;;;;;;;1.42;0.82;;;;;;;22.14;54.28;98208.94;4748020;30;20056;-62
2023/05/07 01:30:36;;;;;;;5.18;1.00;;;;;;;22.25;54.81;98215.09;4745831;30;20071;-62
2023/05/07 01:33:11;;;;;;;1.58;0.60;;;;;;;22.30;54.16;98207.78;4757387;30;20480;-63
2023/05/07 01:35:45;;;;;;;1.67;0.80;;;;;;;22.38;54.14;98211.78;4761489;30;20056;-63
2023/05/07 01:38:15;;;;;;;3.50;0.85;;;;;;;22.45;53.69;98224.94;4761600;30;20084;-63
2023/05/07 01:40:46;;;;;;;1.50;0.77;;;;;;;22.49;53.00;98226.78;4763178;30;20083;-63
2023/05/07 01:43:15;;;;;;;2.20;0.90;;;;;;;22.56;53.49;98219.19;4747804;30;20137;-63
2023/05/07 01:45:46;;;;;;;3.55;1.13;;;;;;;22.66;53.60;98221.78;4756453;29;20059;-63
2023/05/07 01:48:15;;;;;;;1.45;0.60;;;;;;;22.83;53.26;98238.47;4762015;29;20063;-63
2023/05/07 01:50:46;;;;;;;2.20;1.00;;;;;;;22.97;52.57;98241.28;4761971;30;20113;-63
2023/05/07 01:53:15;;;;;;;2.70;0.80;;;;;;;23.26;52.43;98236.69;4746493;30;20692;-62
2023/05/07 01:55:45;;;;;;;1.65;0.90;;;;;;;23.36;51.87;98235.78;4744675;30;20147;-61
2023/05/07 01:58:14;;;;;;;2.05;0.70;;;;;;;23.25;50.81;98231.56;4744976;30;20468;-61
2023/05/07 02:00:44;;;;;;;4.05;0.88;;;;;;;23.60;51.34;98236.63;4755972;30;20082;-63
2023/05/07 02:03:13;;;;;;;3.50;1.08;;;;;;;24.11;50.80;98230.59;4746390;29;20056;-62
2023/05/07 02:06:01;;;;;;;1.20;0.60;;;;;;;24.58;49.29;98235.88;4759530;30;20383;-62
2023/05/07 02:08:37;;;;;;;2.25;1.35;;;;;;;25.06;47.52;98241.06;4758749;30;20062;-63
2023/05/07 02:11:07;;;;;;;2.33;1.05;;;;;;;25.32;47.31;98241.41;4756208;30;20067;-62
2023/05/07 02:13:37;;;;;;;1.83;0.82;;;;;;;25.56;46.36;98238.56;4754251;30;20056;-62
2023/05/07 02:16:07;;;;;;;5.68;0.95;;;;;;;25.66;45.43;98236.47;4748067;29;20145;-62
2023/05/07 02:18:38;;;;;;;3.13;1.10;;;;;;;25.96;45.88;98251.31;4751749;30;20166;-62
2023/05/07 02:21:08;;;;;;;2.58;1.20;;;;;;;26.12;45.28;98265.34;4756586;30;20052;-61
2023/05/07 02:23:37;;;;;;;2.45;0.93;;;;;;;26.26;44.89;98274.31;4748226;30;20060;-62
2023/05/07 02:26:06;;;;;;;1.95;0.80;;;;;;;26.61;44.78;98268.06;4747119;30;20448;-61
2023/05/07 02:28:36;;;;;;;8.77;1.95;;;;;;;26.30;44.46;98278.03;4751818;30;20117;-62
2023/05/07 02:31:06;;;;;;;5.60;0.95;;;;;;;26.85;44.21;98283.28;4756832;30;20052;-61
2023/05/07 02:33:36;;;;;;;4.07;1.33;;;;;;;26.87;43.77;98281.09;4750883;30;20066;-62
2023/05/07 02:36:12;;;;;;;2.50;1.30;;;;;;;26.59;44.76;98291.25;4734717;29;20048;-63
2023/05/07 02:38:48;;;;;;;4.50;1.70;;;;;;;26.59;45.17;98289.34;4755542;29;20056;-63
2023/05/07 02:41:18;;;;;;;3.38;1.67;;;;;;;26.51;45.06;98295.47;4760746;29;20120;-63
2023/05/07 02:43:48;;;;;;;2.40;1.48;;;;;;;26.48;45.85;98308.84;4749661;30;20071;-63
2023/05/07 02:46:18;;;;;;;3.85;1.35;;;;;;;26.19;46.43;98312.72;4744645;30;20138;-62
2023/05/07 02:48:53;;;;;;;2.75;1.25;;;;;;;26.34;46.47;98306.16;4746144;30;20056;-62
2023/05/07 02:51:23;;;;;;;3.88;1.58;;;;;;;26.17;47.42;98322.25;4755125;30;20148;-61
2023/05/07 02:53:55;;;;;;;4.25;2.38;;;;;;;25.86;48.07;98322.06;4757564;30;20051;-62
2023/05/07 02:56:27;;;;;;;3.45;1.17;;;;;;;25.89;48.49;98326.91;4762997;30;20737;-63
2023/05/07 02:58:56;;;;;;;6.32;1.60;;;;;;;25.87;48.92;98329.91;4762570;30;20070;-61
2023/05/07 03:01:30;;;;;;;4.22;1.30;;;;;;;26.09;48.51;98331.09;4752043;30;20582;-61
2023/05/07 03:04:05;;;;;;;3.10;1.50;;;;;;;26.11;47.61;98323.47;4750421;29;20133;-61
2023/05/07 03:06:35;;;;;;;2.65;1.42;;;;;;;26.13;48.36;98332.91;4762188;30;20044;-64
2023/05/07 03:09:04;;;;;;;2.50;1.63;;;;;;;25.69;49.86;98341.66;4761492;30;20143;-63
2023/05/07 03:11:33;;;;;;;3.22;1.55;;;;;;;25.58;49.83;98344.84;4751853;30;20056;-62
2023/05/07 03:14:03;;;;;;;6.95;1.70;;;;;;;25.74;49.43;98354.31;4747998;30;20068;-61
2023/05/07 03:16:32;;;;;;;2.75;1.45;;;;;;;25.65;49.76;98346.06;4743905;30;20074;-62
2023/05/07 03:19:02;;;;;;;3.42;1.70;;;;;;;25.50;49.98;98352.53;4761211;30;20051;-61
2023/05/07 03:21:33;;;;;;;5.85;2.10;;;;;;;25.37;51.00;98368.75;4757583;29;20055;-61
2023/05/07 03:24:03;;;;;;;3.13;1.55;;;;;;;25.23;51.53;98359.75;4750952;30;20055;-62
2023/05/07 03:26:33;;;;;;;4.88;1.95;;;;;;;25.14;51.76;98340.66;4747059;30;20154;-61
2023/05/07 03:29:03;;;;;;;4.13;1.63;;;;;;;25.12;51.56;98342.88;4750348;30;20419;-62
2023/05/07 03:31:32;;;;;;;5.55;1.92;;;;;;;25.24;51.58;98353.25;4751524;30;20685;-63
2023/05/07 03:34:02;;;;;;;4.10;1.70;;;;;;;25.18;51.76;98347.09;4754241;30;20059;-63
2023/05/07 03:36:31;;;;;;;6.05;1.90;;;;;;;25.16;52.32;98343.09;4759653;30;20055;-64
2023/05/07 03:39:00;;;;;;;4.35;1.90;;;;;;;25.19;52.16;98350.63;4746686;30;20109;-62
2023/05/07 03:41:37;;;;;;;4.97;1.52;;;;;;;25.19;52.77;98346.00;4751907;30;20059;-62
2023/05/07 03:44:06;;;;;;;12.23;2.00;;;;;;;25.00;52.69;98351.44;4761869;30;20768;-62
2023/05/07 03:46:37;;;;;;;4.78;1.33;;;;;;;25.20;52.49;98349.53;4765072;30;20054;-62
2023/05/07 03:49:08;;;;;;;5.45;1.73;;;;;;;25.40;51.87;98349.97;4763349;30;20140;-62
2023/05/07 03:51:37;;;;;;;11.35;2.35;;;;;;;25.43;48.66;98352.13;4757715;29;20072;-62
2023/05/07 03:54:08;;;;;;;6.40;1.60;;;;;;;25.41;51.15;98346.16;4748666;29;20060;-62
2023/05/07 03:56:42;;;;;;;4.05;1.50;;;;;;;25.63;50.92;98355.59;4746270;30;20063;-63
2023/05/07 03:59:13;;;;;;;3.58;1.70;;;;;;;25.51;50.56;98358.75;4745267;29;20066;-63
2023/05/07 04:01:45;;;;;;;3.10;1.55;;;;;;;25.39;51.12;98347.59;4756553;30;20055;-63
2023/05/07 04:04:17;;;;;;;4.00;1.40;;;;;;;25.45;50.89;98354.50;4757850;29;20099;-62
2023/05/07 04:06:47;;;;;;;4.20;1.67;;;;;;;25.58;51.43;98351.06;4749778;30;20056;-64
2023/05/07 04:09:16;;;;;;;4.15;1.77;;;;;;;25.58;50.68;98353.00;4744764;29;20047;-62
2023/05/07 04:11:47;;;;;;;2.90;1.63;;;;;;;25.71;50.41;98349.50;4741905;30;20068;-63
2023/05/07 04:14:17;;;;;;;7.00;1.65;;;;;;;25.73;51.11;98353.50;4747206;30;20067;-63
2023/05/07 04:16:46;;;;;;;3.40;1.45;;;;;;;25.78;51.32;98349.91;4729841;30;20051;-62
2023/05/07 04:19:16;;;;;;;2.42;1.20;;;;;;;25.91;50.73;98354.53;4748180;30;20044;-63
2023/05/07 04:21:50;;;;;;;5.20;1.50;;;;;;;25.94;50.48;98343.88;4759459;30;20068;-62
2023/05/07 04:24:20;;;;;;;5.72;1.50;;;;;;;26.02;49.74;98347.00;4757851;30;20420;-63
2023/05/07 04:26:51;;;;;;;2.85;1.45;;;;;;;26.16;50.38;98343.16;4761188;30;20440;-64
2023/05/07 04:29:21;;;;;;;4.25;1.33;;;;;;;26.13;50.09;98351.13;4761321;29;20063;-62
2023/05/07 04:31:51;;;;;;;4.15;1.80;;;;;;;26.14;50.09;98342.69;4747799;30;20048;-62
2023/05/07 04:34:21;;;;;;;4.28;1.50;;;;;;;26.26;49.63;98340.28;4758704;30;20051;-62
2023/05/07 04:36:51;;;;;;;3.25;1.77;;;;;;;26.21;50.74;98347.72;4762174;30;20056;-62
2023/05/07 04:39:21;;;;;;;8.02;2.40;;;;;;;26.48;49.91;98341.44;4761471;30;20056;-61
2023/05/07 04:41:51;;;;;;;8.48;1.67;;;;;;;26.62;51.14;98340.31;4757107;30;20485;-62
2023/05/07 04:44:20;;;;;;;6.40;1.67;;;;;;;26.74;51.03;98339.78;4758747;30;20124;-61
2023/05/07 04:46:49;;;;;;;4.82;1.58;;;;;;;26.68;50.44;98330.97;4761951;29;20063;-60
2023/05/07 04:49:19;;;;;;;4.28;1.50;;;;;;;26.62;50.72;98337.59;4759388;29;20063;-60
2023/05/07 04:51:50;;;;;;;3.58;1.33;;;;;;;26.72;50.20;98340.09;4755454;30;20111;-60
2023/05/07 04:54:22;;;;;;;3.45;1.48;;;;;;;26.55;50.38;98337.22;4743508;30;20890;-60
2023/05/07 04:56:52;;;;;;;4.32;1.92;;;;;;;26.61;51.24;98336.00;4762706;30;20047;-61
2023/05/07 04:59:21;;;;;;;5.53;1.75;;;;;;;26.76;49.92;98329.41;4745703;30;20073;-60
2023/05/07 05:01:51;;;;;;;4.30;1.92;;;;;;;26.39;50.67;98333.22;4755678;30;20059;-60
2023/05/07 05:04:20;;;;;;;6.60;1.83;;;;;;;26.51;50.53;98332.72;4758405;29;20148;-60
2023/05/07 05:06:50;;;;;;;4.85;2.33;;;;;;;26.66;51.18;98327.75;4762589;30;20138;-61
2023/05/07 05:09:19;;;;;;;10.68;1.90;;;;;;;26.96;51.17;98320.81;4746125;29;20056;-62
2023/05/07 05:11:49;;;;;;;11.10;1.88;;;;;;;27.08;50.53;98329.25;4755722;30;20477;-59
2023/05/07 05:14:18;;;;;;;9.13;1.90;;;;;;;26.95;49.65;98319.22;4744153;30;20438;-60
2023/05/07 05:16:48;;;;;;;5.93;2.10;;;;;;;27.21;49.64;98313.97;4748125;30;20058;-61
2023/05/07 05:19:17;;;;;;;7.65;2.33;;;;;;;27.20;49.25;98334.09;4761493;29;20142;-62
2023/05/07 05:21:47;;;;;;;9.05;2.05;;;;;;;27.25;47.25;98328.56;4751943;30;20056;-63
2023/05/07 05:24:16;;;;;;;9.35;2.15;;;;;;;27.44;48.59;98320.19;4756078;29;20056;-61
2023/05/07 05:26:46;;;;;;;4.90;2.13;;;;;;;27.36;48.42;98318.19;4761293;29;20627;-61
2023/05/07 05:29:16;;;;;;;5.05;2.30;;;;;;;27.48;48.83;98316.56;4751264;29;20051;-61
2023/05/07 05:31:45;;;;;;;5.90;2.47;;;;;;;27.59;47.57;98314.38;4739898;30;20075;-61
2023/05/07 05:34:15;;;;;;;7.78;2.55;;;;;;;27.50;47.98;98318.97;4725620;30;20059;-61
2023/05/07 05:36:45;;;;;;;7.22;2.22;;;;;;;27.66;48.41;98312.78;4737059;30;20148;-60
2023/05/07 05:39:15;;;;;;;3.92;2.20;;;;;;;27.73;47.73;98314.28;4742903;30;20064;-61
2023/05/07 05:41:45;;;;;;;4.28;1.88;;;;;;;27.47;46.67;98314.94;4747531;30;20060;-61
2023/05/07 05:44:14;;;;;;;4.47;2.13;;;;;;;27.64;43.32;98331.38;4755484;30;20062;-61
2023/05/07 05:46:44;;;;;;;6.22;2.15;;;;;;;27.75;46.25;98331.09;4763227;30;20058;-61
2023/05/07 05:49:14;;;;;;;5.68;1.95;;;;;;;27.80;46.25;98333.66;4761538;30;20067;-60
2023/05/07 05:51:44;;;;;;;4.53;2.08;;;;;;;27.87;48.14;98328.59;4751322;30;20044;-61
2023/05/07 05:54:15;;;;;;;7.80;1.88;;;;;;;27.97;47.35;98339.22;4750130;30;20056;-60
2023/05/07 05:56:44;;;;;;;8.18;1.70;;;;;;;28.04;47.25;98332.19;4745516;30;20117;-61
2023/05/07 05:59:14;;;;;;;4.78;1.83;;;;;;;28.00;46.71;98336.66;4746016;30;20111;-60
2023/05/07 06:01:45;;;;;;;9.65;2.03;;;;;;;27.86;47.00;98333.22;4751312;30;20067;-60
2023/05/07 06:04:14;;;;;;;5.18;2.22;;;;;;;28.12;47.12;98330.63;4748799;29;20063;-60
2023/05/07 06:06:44;;;;;;;6.07;2.15;;;;;;;28.01;46.95;98335.53;4744363;30;20064;-62
2023/05/07 06:09:14;;;;;;;5.90;2.05;;;;;;;28.18;46.45;98334.81;4743876;29;20095;-61
2023/05/07 06:11:44;;;;;;;3.58;1.77;;;;;;;28.08;46.36;98335.88;4750741;30;20048;-60
2023/05/07 06:14:15;;;;;;;6.07;1.90;;;;;;;28.42;45.83;98329.72;4749533;30;20087;-60
2023/05/07 06:16:44;;;;;;;8.73;2.50;;;;;;;28.34;48.12;98327.00;4742206;30;20056;-61
2023/05/07 06:19:14;;;;;;;13.15;2.80;;;;;;;28.24;47.77;98325.38;4751408;30;20059;-61
2023/05/07 06:21:44;;;;;;;5.72;2.33;;;;;;;28.52;46.91;98324.00;4747348;30;20477;-61
2023/05/07 06:24:13;;;;;;;4.57;2.22;;;;;;;28.44;45.97;98318.53;4758878;30;20056;-63
2023/05/07 06:26:43;;;;;;;6.50;2.40;;;;;;;28.44;45.96;98305.72;4766602;29;20114;-63
2023/05/07 06:29:19;;;;;;;6.35;2.22;;;;;;;28.50;46.76;98317.25;4762051;29;20139;-60
2023/05/07 06:31:52;;;;;;;6.20;2.53;;;;;;;28.62;46.14;98311.19;4752180;30;20053;-61
2023/05/07 06:34:23;;;;;;;10.70;3.85;;;;;;;28.62;45.59;98305.72;4726845;30;20052;-60
2023/05/07 06:36:53;;;;;;;8.70;3.17;;;;;;;28.72;43.49;98300.81;4741949;30;20058;-60
2023/05/07 06:39:40;;;;;;;14.30;2.80;;;;;;;28.74;44.42;98297.72;4746372;29;20056;-59
2023/05/07 06:42:10;;;;;;;6.60;3.00;;;;;;;28.79;45.08;98303.03;4754579;30;20109;-61
2023/05/07 06:44:42;;;;;;;11.38;2.80;;;;;;;28.86;43.68;98306.88;4744826;30;20660;-62
2023/05/07 06:47:14;;;;;;;5.75;2.58;;;;;;;28.97;43.66;98288.28;4744382;30;20063;-60
2023/05/07 06:49:47;;;;;;;5.97;2.50;;;;;;;28.95;44.46;98287.78;4731023;30;20125;-62
2023/05/07 06:52:19;;;;;;;5.28;2.20;;;;;;;29.02;44.10;98283.47;4760869;30;20489;-61
2023/05/07 06:54:51;;;;;;;7.22;2.55;;;;;;;29.07;44.53;98289.88;4736444;30;20363;-60
2023/05/07 06:57:22;;;;;;;6.47;2.28;;;;;;;29.19;43.26;98279.91;4734001;30;20049;-61
2023/05/07 06:59:56;;;;;;;5.32;2.90;;;;;;;29.17;44.55;98282.13;4747204;30;20087;-61
2023/05/07 07:02:26;;;;;;;7.20;2.75;;;;;;;29.29;44.16;98276.84;4737587;30;20080;-61
2023/05/07 07:04:56;;;;;;;6.53;2.70;;;;;;;29.07;44.80;98270.78;4749178;29;20048;-60
2023/05/07 07:07:25;;;;;;;13.45;2.72;;;;;;;28.97;45.70;98274.63;4738460;30;20426;-61
2023/05/07 07:09:55;;;;;;;9.20;2.58;;;;;;;29.00;44.23;98263.06;4752362;29;20579;-60
2023/05/07 07:12:25;;;;;;;6.65;2.90;;;;;;;28.91;44.80;98270.47;4753961;29;20072;-60
2023/05/07 07:14:55;;;;;;;8.13;2.58;;;;;;;28.96;44.08;98267.56;4755729;29;20056;-61
2023/05/07 07:17:25;;;;;;;7.47;2.80;;;;;;;29.05;43.90;98262.09;4754315;29;20067;-61
2023/05/07 07:19:55;;;;;;;5.22;2.45;;;;;;;29.20;44.67;98256.16;4757440;29;20143;-61
2023/05/07 07:22:25;;;;;;;8.35;2.83;;;;;;;29.04;44.57;98255.84;4758756;29;20139;-60
2023/05/07 07:24:54;;;;;;;10.38;2.88;;;;;;;29.29;38.91;98254.19;4758637;29;20067;-61
2023/05/07 07:27:25;;;;;;;9.32;3.60;;;;;;;29.67;39.63;98244.13;4764829;30;20052;-60
2023/05/07 07:29:54;;;;;;;5.85;2.70;;;;;;;29.89;39.13;98238.41;4748827;30;20056;-61
2023/05/07 07:32:25;;;;;;;15.18;2.90;;;;;;;29.85;39.90;98232.00;4760706;29;20083;-60
2023/05/07 07:34:55;;;;;;;12.82;2.90;;;;;;;29.56;40.88;98231.19;4765494;30;20118;-62
2023/05/07 07:37:25;;;;;;;6.93;2.42;;;;;;;29.62;40.05;98227.13;4751999;29;20456;-61
2023/05/07 07:39:55;;;;;;;6.93;2.97;;;;;;;29.52;40.92;98235.69;4750673;30;20136;-60
2023/05/07 07:42:26;;;;;;;8.23;2.78;;;;;;;29.39;41.37;98235.56;4762523;29;20367;-61
2023/05/07 07:44:57;;;;;;;6.68;2.33;;;;;;;29.59;40.45;98227.78;4765058;30;20052;-62
2023/05/07 07:47:29;;;;;;;6.07;2.58;;;;;;;29.53;40.61;98216.25;4763416;30;20558;-62
2023/05/07 07:49:59;;;;;;;10.05;2.38;;;;;;;29.44;41.36;98210.81;4747276;30;20059;-62
2023/05/07 07:52:29;;;;;;;11.30;3.00;;;;;;;29.51;40.96;98212.25;4755152;29;20066;-61
2023/05/07 07:54:58;;;;;;;7.05;2.35;;;;;;;29.44;39.85;98210.81;4757177;29;20060;-62
2023/05/07 07:57:28;;;;;;;8.20;2.25;;;;;;;29.45;40.09;98203.44;4757776;30;20052;-61
2023/05/07 07:59:58;;;;;;;8.15;2.25;;;;;;;29.48;37.60;98205.50;4751704;29;20191;-61
2023/05/07 08:02:29;;;;;;;4.55;2.08;;;;;;;29.54;38.67;98197.94;4739791;30;20478;-62
2023/05/07 08:04:58;;;;;;;7.35;2.45;;;;;;;29.68;34.52;98198.53;4764356;29;20503;-63
2023/05/07 08:07:28;;;;;;;5.15;2.13;;;;;;;29.83;36.18;98182.34;4759126;29;20488;-62
2023/05/07 08:09:57;;;;;;;13.13;3.22;;;;;;;30.33;33.30;98179.63;4747963;30;20056;-62
2023/05/07 08:12:29;;;;;;;7.15;2.30;;;;;;;30.25;35.45;98183.22;4753120;29;20131;-60
2023/05/07 08:14:59;;;;;;;9.95;2.53;;;;;;;29.87;37.81;98177.06;4758658;29;20530;-61
2023/05/07 08:17:29;;;;;;;8.95;2.42;;;;;;;29.80;35.83;98171.28;4723192;30;20072;-61
2023/05/07 08:19:59;;;;;;;9.55;2.70;;;;;;;29.67;37.66;98173.16;4743312;30;20060;-61
2023/05/07 08:22:33;;;;;;;5.22;2.10;;;;;;;29.50;38.50;98173.25;4756984;29;20566;-61
2023/05/07 08:25:04;;;;;;;8.38;2.40;;;;;;;29.40;37.75;98163.50;4757319;29;20052;-61
2023/05/07 08:27:33;;;;;;;10.50;2.35;;;;;;;29.17;39.02;98159.38;4759509;29;20493;-61
2023/05/07 08:30:03;;;;;;;9.88;2.50;;;;;;;29.24;38.16;98154.22;4759618;29;20052;-62
2023/05/07 08:32:33;;;;;;;7.97;2.78;;;;;;;29.33;38.37;98149.56;4761859;29;20064;-63
2023/05/07 08:35:03;;;;;;;8.93;2.63;;;;;;;29.35;38.28;98151.94;4755226;29;20060;-61
2023/05/07 08:37:33;;;;;;;6.72;2.75;;;;;;;29.32;38.69;98145.25;4747810;30;20141;-61
2023/05/07 08:40:02;;;;;;;9.75;2.40;;;;;;;29.30;39.12;98146.69;4732216;29;20075;-61
2023/05/07 08:42:37;;;;;;;13.00;2.67;;;;;;;29.30;37.83;98133.03;4754491;29;20066;-57
2023/05/07 08:45:11;;;;;;;7.80;3.13;;;;;;;29.26;39.45;98137.53;4746026;30;20056;-53
2023/05/07 08:47:46;;;;;;;13.45;2.75;;;;;;;29.16;39.66;98129.72;4741232;30;20148;-59
2023/05/07 08:50:18;;;;;;;6.07;2.13;;;;;;;29.14;39.14;98127.31;4749546;30;20086;-56
2023/05/07 08:52:49;;;;;;;8.27;2.83;;;;;;;29.07;37.98;98124.31;4747725;29;20048;-59
2023/05/07 08:55:24;;;;;;;5.93;2.38;;;;;;;29.12;38.82;98120.59;4762529;30;20059;-58
2023/05/07 08:57:54;;;;;;;8.52;2.97;;;;;;;29.19;38.75;98124.41;4750131;30;20063;-57
2023/05/07 09:00:24;;;;;;;9.45;2.67;;;;;;;29.14;38.50;98118.34;4745331;30;20141;-58
2023/05/07 09:02:55;;;;;;;8.13;2.92;;;;;;;29.14;38.34;98110.16;4754323;30;20468;-59
2023/05/07 09:05:25;;;;;;;11.32;3.55;;;;;;;29.19;38.95;98107.25;4744891;29;20594;-58
2023/05/07 09:07:55;;;;;;;13.68;3.08;;;;;;;29.19;39.51;98105.31;4748303;30;20051;-61
2023/05/07 09:10:26;;;;;;;13.30;2.92;;;;;;;29.17;39.40;98096.66;4762480;29;20548;-57
2023/05/07 09:12:56;;;;;;;8.85;3.03;;;;;;;29.12;38.79;98094.09;4753384;29;20500;-61
2023/05/07 09:15:28;;;;;;;6.35;2.50;;;;;;;29.01;40.00;98087.44;4753989;29;20060;-60
2023/05/07 09:18:01;;;;;;;5.32;2.92;;;;;;;28.94;39.10;98093.38;4753217;29;20457;-56
2023/05/07 09:20:33;;;;;;;11.48;2.88;;;;;;;28.95;40.64;98083.28;4756923;30;20062;-60
2023/05/07 09:23:03;;;;;;;4.88;2.55;;;;;;;28.97;40.21;98079.09;4756874;29;20140;-61
2023/05/07 09:25:34;;;;;;;9.02;2.72;;;;;;;29.00;40.72;98075.72;4756490;29;20056;-61
2023/05/07 09:28:11;;;;;;;8.98;3.10;;;;;;;29.01;40.40;98071.06;4735786;29;20120;-61
2023/05/07 09:30:41;;;;;;;8.55;3.95;;;;;;;28.95;42.32;98066.91;4753718;29;20693;-59
2023/05/07 09:33:12;;;;;;;5.60;2.80;;;;;;;28.81;40.26;98064.41;4736395;29;20055;-59
2023/05/07 09:35:47;;;;;;;9.57;2.67;;;;;;;28.73;41.72;98057.06;4754731;30;20146;-59
2023/05/07 09:38:21;;;;;;;11.88;3.13;;;;;;;28.74;40.84;98055.13;4752857;29;20063;-61
2023/05/07 09:41:26;;;;;;;9.07;2.95;;;;;;;28.86;40.84;98036.97;4759512;29;20917;-60
2023/05/07 09:44:02;;;;;;;12.23;3.38;;;;;;;28.77;42.24;98046.28;4749346;29;20062;-61
2023/05/07 09:46:42;;;;;;;8.95;3.47;;;;;;;28.79;41.07;98036.69;4745551;30;20063;-63
2023/05/07 09:49:24;;;;;;;8.20;3.50;;;;;;;28.73;39.47;98035.25;4751132;30;20133;-61
2023/05/07 09:52:01;;;;;;;6.90;3.25;;;;;;;28.86;41.39;98017.88;4745433;30;20598;-60
2023/05/07 09:54:37;;;;;;;10.15;3.53;;;;;;;28.92;41.64;98016.56;4751101;30;20434;-60
2023/05/07 09:57:09;;;;;;;10.48;3.45;;;;;;;28.96;41.81;98019.44;4751012;30;20047;-60
2023/05/07 09:59:43;;;;;;;9.38;3.42;;;;;;;29.09;40.71;98015.66;4758180;30;20062;-58
2023/05/07 10:02:18;;;;;;;10.27;4.20;;;;;;;29.06;41.75;98007.34;4750233;29;20098;-61
2023/05/07 10:04:54;;;;;;;11.80;3.20;;;;;;;28.99;41.20;97999.69;4752871;30;20062;-60
2023/05/07 10:07:30;;;;;;;5.32;2.70;;;;;;;28.85;40.58;97993.69;4751607;29;20059;-59
2023/05/07 10:10:06;;;;;;;6.57;3.72;;;;;;;28.83;39.84;97993.22;4757167;29;20552;-60
2023/05/07 10:12:41;;;;;;;8.15;3.28;;;;;;;28.78;40.90;97990.66;4757006;29;20142;-59
2023/05/07 10:15:17;;;;;;;6.25;3.28;;;;;;;28.84;40.97;97987.44;4755138;29;20067;-61
2023/05/07 10:17:53;;;;;;;8.95;3.53;;;;;;;28.99;40.73;97994.22;4756511;29;20087;-60
2023/05/07 10:20:25;;;;;;;7.85;4.10;;;;;;;28.92;42.42;97985.78;4754882;29;20785;-60
2023/05/07 10:22:57;;;;;;;19.85;4.72;;;;;;;28.99;41.18;97980.59;4757654;30;20059;-60
2023/05/07 10:25:35;;;;;;;9.50;3.40;;;;;;;28.92;41.68;97974.88;4759565;29;20062;-59
2023/05/07 10:28:13;;;;;;;11.32;4.22;;;;;;;28.95;40.75;97975.00;4758110;29;20055;-61
2023/05/07 10:31:02;;;;;;;6.30;3.00;;;;;;;28.90;41.30;97969.75;4732467;30;20477;-60
2023/05/07 10:33:40;;;;;;;10.25;3.33;;;;;;;28.75;41.31;97964.06;4753890;30;20054;-60
2023/05/07 10:36:10;;;;;;;9.00;3.83;;;;;;;28.69;40.13;97960.69;4765497;30;20062;-58
2023/05/07 10:38:40;;;;;;;9.50;3.05;;;;;;;28.79;38.47;97951.38;4755846;30;20142;-54
2023/05/07 10:41:11;;;;;;;5.82;2.92;;;;;;;28.87;40.14;97950.53;4747147;30;20060;-56
2023/05/07 10:43:45;;;;;;;8.35;3.40;;;;;;;28.79;40.82;97945.94;4754570;30;20063;-56
2023/05/07 10:46:29;;;;;;;8.65;3.50;;;;;;;28.69;40.75;97940.81;4744805;30;20090;-57
2023/05/07 10:49:14;;;;;;;9.57;3.60;;;;;;;28.54;41.25;97944.91;4743637;30;20051;-51
2023/05/07 10:52:21;;;;;;;7.43;2.95;;;;;;;28.45;41.78;97944.97;4765816;30;20127;-54
2023/05/07 10:55:24;;;;;;;8.93;3.42;;;;;;;28.49;40.17;97929.56;4749016;30;20056;-55
2023/05/07 10:58:27;;;;;;;7.10;3.70;;;;;;;28.67;40.82;97930.25;4758121;30;20055;-49
2023/05/07 11:01:54;;;;;;;10.77;3.50;;;;;;;28.73;42.16;97928.16;4751034;29;20521;-55
2023/05/07 11:04:34;;;;;;;9.55;3.50;;;;;;;28.72;39.96;97923.84;4429706;29;10000198;-59
2023/05/07 11:07:30;;;;;;;9.57;3.15;;;;;;;28.74;40.43;97924.31;4752801;30;20369;-58
2023/05/07 11:10:08;;;;;;;;;;;;;;;28.80;41.05;97914.81;4751192;30;20474;-60
2023/05/07 11:12:56;;;;;;;12.15;3.25;;;;;;;28.82;41.24;97910.63;4745446;30;20033;-57
2023/05/07 11:15:37;;;;;;;11.35;2.85;;;;;;;28.83;41.42;97909.50;4749656;30;20818;-60
2023/05/07 11:18:18;;;;;;;7.70;3.15;;;;;;;28.84;41.24;97893.94;4745338;30;20052;-59
2023/05/07 11:20:59;;;;;;;7.70;3.53;;;;;;;28.85;41.87;97901.81;4746656;30;20147;-56
2023/05/07 11:23:37;;;;;;;7.55;3.00;;;;;;;28.81;42.09;97895.38;4747135;30;20477;-60
2023/05/07 11:26:30;;;;;;;7.25;3.10;;;;;;;28.79;41.71;97891.41;4746630;29;20168;-59
2023/05/07 11:29:00;;;;;;;10.35;3.60;;;;;;;28.81;41.50;97884.47;4743319;30;20060;-58
2023/05/07 11:31:30;;;;;;;12.15;3.40;;;;;;;28.81;40.86;97883.72;4748423;30;20082;-59
2023/05/07 11:34:01;;;;;;;9.15;3.55;;;;;;;28.82;39.93;97880.63;4750932;30;20067;-60
2023/05/07 11:36:33;;;;;;;19.20;3.72;;;;;;;28.81;40.14;97876.31;4745651;29;20142;-62
2023/05/07 11:39:07;;;;;;;10.48;3.40;;;;;;;28.73;41.96;97881.81;4746817;29;20121;-59
2023/05/07 11:41:37;;;;;;;8.45;3.60;;;;;;;28.69;41.28;97875.41;4744611;29;20048;-57
2023/05/07 11:44:07;;;;;;;8.25;3.60;;;;;;;28.69;41.53;97880.84;4750742;29;20121;-59
2023/05/07 11:46:36;;;;;;;9.15;3.65;;;;;;;28.56;40.93;97871.81;4747391;29;20083;-58
2023/05/07 11:49:06;;;;;;;7.75;3.08;;;;;;;28.58;40.86;97873.09;4764395;29;20518;-57
2023/05/07 11:51:36;;;;;;;7.75;2.95;;;;;;;28.63;41.85;97868.56;4730889;30;20064;-59
2023/05/07 11:54:11;;;;;;;12.90;3.33;;;;;;;28.61;41.45;97862.63;4747448;30;20052;-58